Pagrindinis puslapis
METAR-TAF:

METAR-TAF

Oro uostai :

Kastamonu, Turkija

platuma: 41-19-01N, ilguma: 33-47-46E, Aukštis: 1073 m

Dabartinis oras

Ataskaita buvo paskelbta 39 minutes, ne 08:50 UTC
Vėjas 2 kt nuo kintamojo kryptimis
Temperatūra 5°C
Drėgmė 81%
Slėgis 1023 hPa
Matomumas 10 km arba daugiau
Mažai debesys ne aukštis 1000 ft

METAR: LTAL 270850Z VRB02KT 9999 FEW010 05/02 Q1023

Laikas: 12:29 (09:29 UTC)

Prognozė

Ataskaita buvo paskelbta 1 valandą ir 49 minutes, ne 07:40 UTC
Prognozė galioja nuo 27 metu 09 UTC su 27 metu 18 UTC
Vėjas 2 kt nuo kintamojo kryptimis
Matomumas: 1200 m
Su prošvaistėmis ne aukštis 400 ft
Rūkas lopais
Tapsmas
nuo 27 metu 09 UTC su 27 metu 11 UTC
Matomumas: 3200 m
rūkana
Tapsmas
nuo 27 metu 12 UTC su 27 metu 13 UTC
Matomumas 10 km arba daugiau

TAF: LTAL 270740Z 2709/2718 VRB02KT 1200 BCFG BKN004 BECMG 2709/2711 3200 BR BECMG 2712/2713 9999 NSW

Orai ataskaitas ir orų prognozės (METAR, TAF).

turimą stotys yra geltonos ir raudonos taškus žemėlapyje.

Perkelti pele per norėdami pamatyti stoties vardą.

Tada spustelėkite, norėdami matyti oro stebėjimo ir prognozės.

Norėdami pakeisti žemėlapį: spustelėkite ant žalios mygtukų su juodo kryžiaus žemyn,; žalią mygtuką su brūkšneliu, jei norite nutolinti; arba žalių rodyklių gretimoms žemėlapius.


METAR-TAF: